sensor_id;sensor_type;location;lat;lon;timestamp;P1;durP1;ratioP1;P2;durP2;ratioP2
45011;SDS011;63444;48.148;11.542;2022-12-18T00:00:56;42.33;;;26.60;;
45011;SDS011;63444;48.148;11.542;2022-12-18T00:03:22;43.53;;;26.77;;
45011;SDS011;63444;48.148;11.542;2022-12-18T00:05:48;41.03;;;24.97;;
45011;SDS011;63444;48.148;11.542;2022-12-18T00:08:17;43.43;;;25.23;;
45011;SDS011;63444;48.148;11.542;2022-12-18T00:10:43;43.77;;;26.13;;
45011;SDS011;63444;48.148;11.542;2022-12-18T00:13:10;38.07;;;22.70;;
45011;SDS011;63444;48.148;11.542;2022-12-18T00:15:37;38.47;;;23.53;;
45011;SDS011;63444;48.148;11.542;2022-12-18T00:18:04;36.97;;;22.53;;
45011;SDS011;63444;48.148;11.542;2022-12-18T00:20:30;42.50;;;25.50;;
45011;SDS011;63444;48.148;11.542;2022-12-18T00:23:00;44.83;;;25.97;;
45011;SDS011;63444;48.148;11.542;2022-12-18T00:25:26;47.40;;;28.10;;
45011;SDS011;63444;48.148;11.542;2022-12-18T00:27:51;48.07;;;28.07;;
45011;SDS011;63444;48.148;11.542;2022-12-18T00:30:20;47.37;;;28.43;;
45011;SDS011;63444;48.148;11.542;2022-12-18T00:32:45;48.40;;;28.07;;
45011;SDS011;63444;48.148;11.542;2022-12-18T00:35:11;49.63;;;27.93;;
45011;SDS011;63444;48.148;11.542;2022-12-18T00:37:36;48.73;;;27.33;;
45011;SDS011;63444;48.148;11.542;2022-12-18T00:40:02;48.40;;;28.53;;
45011;SDS011;63444;48.148;11.542;2022-12-18T00:42:28;48.90;;;27.13;;
45011;SDS011;63444;48.148;11.542;2022-12-18T00:45:12;46.03;;;26.23;;
45011;SDS011;63444;48.148;11.542;2022-12-18T00:47:38;47.83;;;25.93;;
45011;SDS011;63444;48.148;11.542;2022-12-18T00:50:04;47.83;;;26.63;;
45011;SDS011;63444;48.148;11.542;2022-12-18T00:52:30;46.10;;;27.63;;
45011;SDS011;63444;48.148;11.542;2022-12-18T00:54:55;45.90;;;26.77;;
45011;SDS011;63444;48.148;11.542;2022-12-18T00:57:21;46.67;;;26.77;;
45011;SDS011;63444;48.148;11.542;2022-12-18T00:59:46;45.63;;;24.83;;
45011;SDS011;63444;48.148;11.542;2022-12-18T01:02:12;48.73;;;25.90;;
45011;SDS011;63444;48.148;11.542;2022-12-18T01:04:38;45.63;;;25.47;;
45011;SDS011;63444;48.148;11.542;2022-12-18T01:07:03;49.43;;;27.57;;
45011;SDS011;63444;48.148;11.542;2022-12-18T01:09:29;47.67;;;26.70;;
45011;SDS011;63444;48.148;11.542;2022-12-18T01:11:54;42.87;;;24.77;;
45011;SDS011;63444;48.148;11.542;2022-12-18T01:14:20;44.80;;;25.73;;
45011;SDS011;63444;48.148;11.542;2022-12-18T01:16:46;44.07;;;24.90;;
45011;SDS011;63444;48.148;11.542;2022-12-18T01:19:11;44.77;;;26.50;;
45011;SDS011;63444;48.148;11.542;2022-12-18T01:21:37;42.97;;;24.87;;
45011;SDS011;63444;48.148;11.542;2022-12-18T01:24:02;42.40;;;23.97;;
45011;SDS011;63444;48.148;11.542;2022-12-18T01:26:29;45.47;;;24.27;;
45011;SDS011;63444;48.148;11.542;2022-12-18T01:28:55;46.33;;;24.80;;
45011;SDS011;63444;48.148;11.542;2022-12-18T01:31:22;51.17;;;26.27;;
45011;SDS011;63444;48.148;11.542;2022-12-18T01:33:50;48.97;;;26.60;;
45011;SDS011;63444;48.148;11.542;2022-12-18T01:36:23;50.27;;;27.00;;
45011;SDS011;63444;48.148;11.542;2022-12-18T01:38:51;46.30;;;24.43;;
45011;SDS011;63444;48.148;11.542;2022-12-18T01:41:19;42.63;;;25.17;;
45011;SDS011;63444;48.148;11.542;2022-12-18T01:43:52;48.03;;;26.00;;
45011;SDS011;63444;48.148;11.542;2022-12-18T01:46:20;48.13;;;26.43;;
45011;SDS011;63444;48.148;11.542;2022-12-18T01:49:07;45.67;;;25.20;;
45011;SDS011;63444;48.148;11.542;2022-12-18T01:51:33;45.57;;;26.10;;
45011;SDS011;63444;48.148;11.542;2022-12-18T01:53:59;43.40;;;25.43;;
45011;SDS011;63444;48.148;11.542;2022-12-18T01:56:25;43.27;;;24.73;;
45011;SDS011;63444;48.148;11.542;2022-12-18T01:59:02;38.87;;;24.00;;
45011;SDS011;63444;48.148;11.542;2022-12-18T02:01:31;42.27;;;24.37;;
45011;SDS011;63444;48.148;11.542;2022-12-18T02:04:21;41.33;;;24.10;;
45011;SDS011;63444;48.148;11.542;2022-12-18T02:06:50;42.20;;;24.93;;
45011;SDS011;63444;48.148;11.542;2022-12-18T02:09:30;41.97;;;24.83;;
45011;SDS011;63444;48.148;11.542;2022-12-18T02:12:05;46.57;;;25.23;;
45011;SDS011;63444;48.148;11.542;2022-12-18T02:14:49;50.27;;;25.80;;
45011;SDS011;63444;48.148;11.542;2022-12-18T02:20:20;45.97;;;25.67;;
45011;SDS011;63444;48.148;11.542;2022-12-18T02:28:31;48.57;;;26.97;;
45011;SDS011;63444;48.148;11.542;2022-12-18T02:31:00;54.03;;;29.23;;
45011;SDS011;63444;48.148;11.542;2022-12-18T02:33:31;52.37;;;28.47;;
45011;SDS011;63444;48.148;11.542;2022-12-18T02:35:59;52.97;;;29.93;;
45011;SDS011;63444;48.148;11.542;2022-12-18T02:38:26;52.30;;;28.50;;
45011;SDS011;63444;48.148;11.542;2022-12-18T02:40:53;53.97;;;29.93;;
45011;SDS011;63444;48.148;11.542;2022-12-18T02:43:20;56.60;;;30.13;;
45011;SDS011;63444;48.148;11.542;2022-12-18T02:45:50;53.73;;;29.80;;
45011;SDS011;63444;48.148;11.542;2022-12-18T02:48:21;56.97;;;31.03;;
45011;SDS011;63444;48.148;11.542;2022-12-18T02:50:55;56.37;;;30.67;;
45011;SDS011;63444;48.148;11.542;2022-12-18T02:53:46;55.53;;;30.63;;
45011;SDS011;63444;48.148;11.542;2022-12-18T02:56:38;55.67;;;30.30;;
45011;SDS011;63444;48.148;11.542;2022-12-18T02:59:13;57.40;;;29.77;;
45011;SDS011;63444;48.148;11.542;2022-12-18T03:02:07;48.87;;;27.77;;
45011;SDS011;63444;48.148;11.542;2022-12-18T03:04:56;56.43;;;30.97;;
45011;SDS011;63444;48.148;11.542;2022-12-18T03:07:30;51.23;;;30.10;;
45011;SDS011;63444;48.148;11.542;2022-12-18T03:10:03;52.97;;;28.87;;
45011;SDS011;63444;48.148;11.542;2022-12-18T03:12:37;55.77;;;30.33;;
45011;SDS011;63444;48.148;11.542;2022-12-18T03:15:19;53.00;;;29.17;;
45011;SDS011;63444;48.148;11.542;2022-12-18T03:17:52;52.93;;;28.90;;
45011;SDS011;63444;48.148;11.542;2022-12-18T03:20:22;48.93;;;28.00;;
45011;SDS011;63444;48.148;11.542;2022-12-18T03:22:52;49.27;;;27.80;;
45011;SDS011;63444;48.148;11.542;2022-12-18T03:25:22;56.17;;;29.43;;
45011;SDS011;63444;48.148;11.542;2022-12-18T03:27:51;54.20;;;28.90;;
45011;SDS011;63444;48.148;11.542;2022-12-18T03:30:22;55.43;;;29.43;;
45011;SDS011;63444;48.148;11.542;2022-12-18T03:35:37;56.53;;;30.10;;
45011;SDS011;63444;48.148;11.542;2022-12-18T03:38:08;53.53;;;29.63;;
45011;SDS011;63444;48.148;11.542;2022-12-18T03:40:39;51.27;;;26.97;;
45011;SDS011;63444;48.148;11.542;2022-12-18T03:43:28;47.40;;;26.67;;
45011;SDS011;63444;48.148;11.542;2022-12-18T03:46:17;52.57;;;28.90;;
45011;SDS011;63444;48.148;11.542;2022-12-18T03:48:50;51.77;;;28.70;;
45011;SDS011;63444;48.148;11.542;2022-12-18T03:54:07;49.63;;;27.67;;
45011;SDS011;63444;48.148;11.542;2022-12-18T03:56:36;56.73;;;30.50;;
45011;SDS011;63444;48.148;11.542;2022-12-18T03:59:05;53.43;;;29.13;;
45011;SDS011;63444;48.148;11.542;2022-12-18T04:01:34;54.43;;;29.93;;
45011;SDS011;63444;48.148;11.542;2022-12-18T04:04:04;48.47;;;27.20;;
45011;SDS011;63444;48.148;11.542;2022-12-18T04:06:32;48.83;;;28.13;;
45011;SDS011;63444;48.148;11.542;2022-12-18T04:09:00;52.77;;;27.97;;
45011;SDS011;63444;48.148;11.542;2022-12-18T04:11:26;51.00;;;28.77;;
45011;SDS011;63444;48.148;11.542;2022-12-18T04:13:54;52.47;;;29.23;;
45011;SDS011;63444;48.148;11.542;2022-12-18T04:16:22;49.53;;;27.80;;
45011;SDS011;63444;48.148;11.542;2022-12-18T04:18:49;47.63;;;28.10;;
45011;SDS011;63444;48.148;11.542;2022-12-18T04:21:14;50.37;;;29.27;;
45011;SDS011;63444;48.148;11.542;2022-12-18T04:23:40;49.07;;;28.27;;
45011;SDS011;63444;48.148;11.542;2022-12-18T04:26:05;52.87;;;27.93;;
45011;SDS011;63444;48.148;11.542;2022-12-18T04:28:31;54.23;;;30.23;;
45011;SDS011;63444;48.148;11.542;2022-12-18T04:30:56;53.03;;;29.10;;
45011;SDS011;63444;48.148;11.542;2022-12-18T04:33:22;50.00;;;27.27;;
45011;SDS011;63444;48.148;11.542;2022-12-18T04:35:48;49.07;;;27.57;;
45011;SDS011;63444;48.148;11.542;2022-12-18T04:38:13;43.43;;;24.70;;
45011;SDS011;63444;48.148;11.542;2022-12-18T04:40:39;53.47;;;28.57;;
45011;SDS011;63444;48.148;11.542;2022-12-18T04:43:04;45.00;;;25.93;;
45011;SDS011;63444;48.148;11.542;2022-12-18T04:45:31;43.03;;;24.67;;
45011;SDS011;63444;48.148;11.542;2022-12-18T04:47:57;51.07;;;28.50;;
45011;SDS011;63444;48.148;11.542;2022-12-18T04:50:23;47.47;;;26.83;;
45011;SDS011;63444;48.148;11.542;2022-12-18T04:52:49;47.27;;;26.70;;
45011;SDS011;63444;48.148;11.542;2022-12-18T04:55:14;44.20;;;25.43;;
45011;SDS011;63444;48.148;11.542;2022-12-18T04:57:40;41.90;;;24.70;;
45011;SDS011;63444;48.148;11.542;2022-12-18T05:00:06;44.47;;;27.50;;
45011;SDS011;63444;48.148;11.542;2022-12-18T05:02:32;41.13;;;25.20;;
45011;SDS011;63444;48.148;11.542;2022-12-18T05:04:58;46.40;;;25.30;;
45011;SDS011;63444;48.148;11.542;2022-12-18T05:07:23;42.37;;;25.37;;
45011;SDS011;63444;48.148;11.542;2022-12-18T05:09:49;42.93;;;26.57;;
45011;SDS011;63444;48.148;11.542;2022-12-18T05:12:14;44.37;;;24.20;;
45011;SDS011;63444;48.148;11.542;2022-12-18T05:14:40;43.63;;;26.47;;
45011;SDS011;63444;48.148;11.542;2022-12-18T05:17:07;43.97;;;26.00;;
45011;SDS011;63444;48.148;11.542;2022-12-18T05:19:33;44.43;;;25.77;;
45011;SDS011;63444;48.148;11.542;2022-12-18T05:21:58;46.37;;;26.37;;
45011;SDS011;63444;48.148;11.542;2022-12-18T05:24:24;46.23;;;27.33;;
45011;SDS011;63444;48.148;11.542;2022-12-18T05:26:50;43.87;;;25.77;;
45011;SDS011;63444;48.148;11.542;2022-12-18T05:29:15;39.90;;;23.93;;
45011;SDS011;63444;48.148;11.542;2022-12-18T05:31:41;39.93;;;23.93;;
45011;SDS011;63444;48.148;11.542;2022-12-18T05:34:06;39.87;;;23.40;;
45011;SDS011;63444;48.148;11.542;2022-12-18T05:36:32;43.50;;;24.90;;
45011;SDS011;63444;48.148;11.542;2022-12-18T05:38:58;42.83;;;24.10;;
45011;SDS011;63444;48.148;11.542;2022-12-18T05:41:25;40.67;;;24.53;;
45011;SDS011;63444;48.148;11.542;2022-12-18T05:43:51;43.13;;;25.67;;
45011;SDS011;63444;48.148;11.542;2022-12-18T05:46:17;41.80;;;25.10;;
45011;SDS011;63444;48.148;11.542;2022-12-18T05:48:43;42.27;;;25.13;;
45011;SDS011;63444;48.148;11.542;2022-12-18T05:51:11;38.93;;;23.27;;
45011;SDS011;63444;48.148;11.542;2022-12-18T05:53:39;39.73;;;24.83;;
45011;SDS011;63444;48.148;11.542;2022-12-18T05:56:07;41.63;;;23.47;;
45011;SDS011;63444;48.148;11.542;2022-12-18T05:58:35;36.50;;;22.47;;
45011;SDS011;63444;48.148;11.542;2022-12-18T06:01:11;39.20;;;22.73;;
45011;SDS011;63444;48.148;11.542;2022-12-18T06:03:39;39.40;;;23.70;;
45011;SDS011;63444;48.148;11.542;2022-12-18T06:06:12;42.90;;;25.97;;
45011;SDS011;63444;48.148;11.542;2022-12-18T06:08:38;41.60;;;24.33;;
45011;SDS011;63444;48.148;11.542;2022-12-18T06:11:04;39.67;;;22.57;;
45011;SDS011;63444;48.148;11.542;2022-12-18T06:13:29;38.13;;;23.03;;
45011;SDS011;63444;48.148;11.542;2022-12-18T06:15:55;38.00;;;22.83;;
45011;SDS011;63444;48.148;11.542;2022-12-18T06:18:20;38.00;;;22.17;;
45011;SDS011;63444;48.148;11.542;2022-12-18T06:20:53;42.63;;;24.30;;
45011;SDS011;63444;48.148;11.542;2022-12-18T06:23:20;37.67;;;22.30;;
45011;SDS011;63444;48.148;11.542;2022-12-18T06:25:46;40.20;;;22.67;;
45011;SDS011;63444;48.148;11.542;2022-12-18T06:28:12;38.60;;;22.87;;
45011;SDS011;63444;48.148;11.542;2022-12-18T06:30:37;37.53;;;22.57;;
45011;SDS011;63444;48.148;11.542;2022-12-18T06:33:04;38.77;;;22.17;;
45011;SDS011;63444;48.148;11.542;2022-12-18T06:35:31;38.40;;;22.97;;
45011;SDS011;63444;48.148;11.542;2022-12-18T06:37:57;39.43;;;22.57;;
45011;SDS011;63444;48.148;11.542;2022-12-18T06:40:22;38.07;;;22.00;;
45011;SDS011;63444;48.148;11.542;2022-12-18T06:42:48;36.93;;;22.37;;
45011;SDS011;63444;48.148;11.542;2022-12-18T06:45:13;35.33;;;22.07;;
45011;SDS011;63444;48.148;11.542;2022-12-18T06:47:39;36.70;;;21.23;;
45011;SDS011;63444;48.148;11.542;2022-12-18T06:50:05;32.20;;;20.13;;
45011;SDS011;63444;48.148;11.542;2022-12-18T06:52:31;33.80;;;20.90;;
45011;SDS011;63444;48.148;11.542;2022-12-18T06:54:57;37.43;;;22.53;;
45011;SDS011;63444;48.148;11.542;2022-12-18T06:57:23;35.83;;;21.43;;
45011;SDS011;63444;48.148;11.542;2022-12-18T06:59:48;32.37;;;20.03;;
45011;SDS011;63444;48.148;11.542;2022-12-18T07:02:14;32.93;;;21.37;;
45011;SDS011;63444;48.148;11.542;2022-12-18T07:04:40;36.87;;;21.80;;
45011;SDS011;63444;48.148;11.542;2022-12-18T07:07:05;43.50;;;25.10;;
45011;SDS011;63444;48.148;11.542;2022-12-18T07:09:31;43.63;;;25.30;;
45011;SDS011;63444;48.148;11.542;2022-12-18T07:11:56;45.03;;;25.27;;
45011;SDS011;63444;48.148;11.542;2022-12-18T07:14:22;42.53;;;25.27;;
45011;SDS011;63444;48.148;11.542;2022-12-18T07:16:49;47.92;;;31.60;;
45011;SDS011;63444;48.148;11.542;2022-12-18T07:19:14;43.40;;;30.43;;
45011;SDS011;63444;48.148;11.542;2022-12-18T07:21:40;36.40;;;23.33;;
45011;SDS011;63444;48.148;11.542;2022-12-18T07:24:05;39.80;;;23.67;;
45011;SDS011;63444;48.148;11.542;2022-12-18T07:26:31;38.93;;;23.10;;
45011;SDS011;63444;48.148;11.542;2022-12-18T07:28:57;37.23;;;21.60;;
45011;SDS011;63444;48.148;11.542;2022-12-18T07:31:23;38.97;;;23.53;;
45011;SDS011;63444;48.148;11.542;2022-12-18T07:33:49;40.53;;;23.70;;
45011;SDS011;63444;48.148;11.542;2022-12-18T07:36:16;37.07;;;22.33;;
45011;SDS011;63444;48.148;11.542;2022-12-18T07:38:42;38.10;;;22.77;;
45011;SDS011;63444;48.148;11.542;2022-12-18T07:41:09;40.10;;;22.60;;
45011;SDS011;63444;48.148;11.542;2022-12-18T07:43:37;33.20;;;20.10;;
45011;SDS011;63444;48.148;11.542;2022-12-18T07:46:03;36.93;;;22.30;;
45011;SDS011;63444;48.148;11.542;2022-12-18T07:48:30;37.20;;;21.63;;
45011;SDS011;63444;48.148;11.542;2022-12-18T07:51:02;38.83;;;22.57;;
45011;SDS011;63444;48.148;11.542;2022-12-18T07:53:31;36.37;;;21.43;;
45011;SDS011;63444;48.148;11.542;2022-12-18T07:55:59;32.13;;;18.87;;
45011;SDS011;63444;48.148;11.542;2022-12-18T07:58:27;33.63;;;20.43;;
45011;SDS011;63444;48.148;11.542;2022-12-18T08:00:53;35.30;;;20.20;;
45011;SDS011;63444;48.148;11.542;2022-12-18T08:03:18;30.17;;;18.43;;
45011;SDS011;63444;48.148;11.542;2022-12-18T08:05:45;34.27;;;20.57;;
45011;SDS011;63444;48.148;11.542;2022-12-18T08:08:12;34.33;;;20.33;;
45011;SDS011;63444;48.148;11.542;2022-12-18T08:10:37;36.73;;;21.07;;
45011;SDS011;63444;48.148;11.542;2022-12-18T08:13:04;37.23;;;21.73;;
45011;SDS011;63444;48.148;11.542;2022-12-18T08:15:29;29.83;;;19.17;;
45011;SDS011;63444;48.148;11.542;2022-12-18T08:17:58;34.40;;;20.40;;
45011;SDS011;63444;48.148;11.542;2022-12-18T08:20:23;33.47;;;20.07;;
45011;SDS011;63444;48.148;11.542;2022-12-18T08:22:49;37.80;;;21.90;;
45011;SDS011;63444;48.148;11.542;2022-12-18T08:25:14;36.57;;;21.07;;
45011;SDS011;63444;48.148;11.542;2022-12-18T08:27:40;31.73;;;20.17;;
45011;SDS011;63444;48.148;11.542;2022-12-18T08:30:06;36.30;;;20.90;;
45011;SDS011;63444;48.148;11.542;2022-12-18T08:32:32;32.20;;;19.83;;
45011;SDS011;63444;48.148;11.542;2022-12-18T08:34:58;35.33;;;20.20;;
45011;SDS011;63444;48.148;11.542;2022-12-18T08:37:24;35.57;;;21.57;;
45011;SDS011;63444;48.148;11.542;2022-12-18T08:39:49;34.70;;;20.23;;
45011;SDS011;63444;48.148;11.542;2022-12-18T08:42:15;33.57;;;19.80;;
45011;SDS011;63444;48.148;11.542;2022-12-18T08:44:59;33.17;;;19.33;;
45011;SDS011;63444;48.148;11.542;2022-12-18T08:47:26;33.93;;;20.10;;
45011;SDS011;63444;48.148;11.542;2022-12-18T08:49:52;32.33;;;19.50;;
45011;SDS011;63444;48.148;11.542;2022-12-18T08:52:17;31.43;;;19.53;;
45011;SDS011;63444;48.148;11.542;2022-12-18T08:54:43;32.33;;;19.33;;
45011;SDS011;63444;48.148;11.542;2022-12-18T08:57:10;34.10;;;20.03;;
45011;SDS011;63444;48.148;11.542;2022-12-18T08:59:36;34.33;;;20.17;;
45011;SDS011;63444;48.148;11.542;2022-12-18T09:02:01;32.03;;;18.93;;
45011;SDS011;63444;48.148;11.542;2022-12-18T09:04:27;28.43;;;18.37;;
45011;SDS011;63444;48.148;11.542;2022-12-18T09:06:52;33.03;;;20.30;;
45011;SDS011;63444;48.148;11.542;2022-12-18T09:09:21;30.53;;;18.47;;
45011;SDS011;63444;48.148;11.542;2022-12-18T09:11:46;29.30;;;18.53;;
45011;SDS011;63444;48.148;11.542;2022-12-18T09:14:12;28.60;;;18.03;;
45011;SDS011;63444;48.148;11.542;2022-12-18T09:16:37;31.07;;;18.80;;
45011;SDS011;63444;48.148;11.542;2022-12-18T09:19:03;33.60;;;19.33;;
45011;SDS011;63444;48.148;11.542;2022-12-18T09:21:31;28.00;;;17.60;;
45011;SDS011;63444;48.148;11.542;2022-12-18T09:23:58;28.43;;;18.33;;
45011;SDS011;63444;48.148;11.542;2022-12-18T09:26:24;29.33;;;17.90;;
45011;SDS011;63444;48.148;11.542;2022-12-18T09:28:52;30.00;;;18.17;;
45011;SDS011;63444;48.148;11.542;2022-12-18T09:31:18;31.67;;;18.80;;
45011;SDS011;63444;48.148;11.542;2022-12-18T09:33:45;33.30;;;19.50;;
45011;SDS011;63444;48.148;11.542;2022-12-18T09:36:12;32.93;;;19.60;;
45011;SDS011;63444;48.148;11.542;2022-12-18T09:38:40;31.27;;;19.33;;
45011;SDS011;63444;48.148;11.542;2022-12-18T09:41:14;30.00;;;18.27;;
45011;SDS011;63444;48.148;11.542;2022-12-18T09:43:57;31.00;;;17.83;;
45011;SDS011;63444;48.148;11.542;2022-12-18T09:46:34;28.73;;;17.60;;
45011;SDS011;63444;48.148;11.542;2022-12-18T09:49:06;32.80;;;19.23;;
45011;SDS011;63444;48.148;11.542;2022-12-18T09:51:40;29.33;;;18.10;;
45011;SDS011;63444;48.148;11.542;2022-12-18T09:54:21;27.07;;;15.90;;
45011;SDS011;63444;48.148;11.542;2022-12-18T09:56:50;27.50;;;17.93;;
45011;SDS011;63444;48.148;11.542;2022-12-18T09:59:18;32.53;;;19.03;;
45011;SDS011;63444;48.148;11.542;2022-12-18T10:01:48;30.03;;;17.90;;
45011;SDS011;63444;48.148;11.542;2022-12-18T10:04:14;29.93;;;17.93;;
45011;SDS011;63444;48.148;11.542;2022-12-18T10:06:53;30.83;;;17.97;;
45011;SDS011;63444;48.148;11.542;2022-12-18T10:09:49;27.87;;;17.20;;
45011;SDS011;63444;48.148;11.542;2022-12-18T10:12:21;34.13;;;19.30;;
45011;SDS011;63444;48.148;11.542;2022-12-18T10:15:15;28.70;;;18.40;;
45011;SDS011;63444;48.148;11.542;2022-12-18T10:23:47;29.57;;;17.33;;
45011;SDS011;63444;48.148;11.542;2022-12-18T10:26:14;29.27;;;18.30;;
45011;SDS011;63444;48.148;11.542;2022-12-18T10:28:40;30.03;;;19.27;;
45011;SDS011;63444;48.148;11.542;2022-12-18T10:31:16;28.43;;;18.33;;
45011;SDS011;63444;48.148;11.542;2022-12-18T10:33:44;30.43;;;18.00;;
45011;SDS011;63444;48.148;11.542;2022-12-18T10:36:10;28.03;;;17.37;;
45011;SDS011;63444;48.148;11.542;2022-12-18T10:38:36;30.83;;;19.07;;
45011;SDS011;63444;48.148;11.542;2022-12-18T10:41:03;29.47;;;18.60;;
45011;SDS011;63444;48.148;11.542;2022-12-18T10:46:44;27.63;;;18.63;;
45011;SDS011;63444;48.148;11.542;2022-12-18T10:49:25;29.30;;;18.33;;
45011;SDS011;63444;48.148;11.542;2022-12-18T10:52:04;28.97;;;17.87;;
45011;SDS011;63444;48.148;11.542;2022-12-18T10:54:48;29.53;;;18.20;;
45011;SDS011;63444;48.148;11.542;2022-12-18T10:57:17;28.30;;;17.30;;
45011;SDS011;63444;48.148;11.542;2022-12-18T10:59:53;24.33;;;16.63;;
45011;SDS011;63444;48.148;11.542;2022-12-18T11:02:28;28.93;;;18.67;;
45011;SDS011;63444;48.148;11.542;2022-12-18T11:05:01;30.07;;;18.77;;
45011;SDS011;63444;48.148;11.542;2022-12-18T11:07:46;28.17;;;18.43;;
45011;SDS011;63444;48.148;11.542;2022-12-18T11:10:17;26.93;;;16.33;;
45011;SDS011;63444;48.148;11.542;2022-12-18T11:12:45;25.53;;;16.23;;
45011;SDS011;63444;48.148;11.542;2022-12-18T11:15:29;27.37;;;16.67;;
45011;SDS011;63444;48.148;11.542;2022-12-18T11:17:55;31.73;;;18.30;;
45011;SDS011;63444;48.148;11.542;2022-12-18T11:20:27;25.23;;;17.13;;
45011;SDS011;63444;48.148;11.542;2022-12-18T11:23:00;28.03;;;17.57;;
45011;SDS011;63444;48.148;11.542;2022-12-18T11:25:31;26.10;;;16.77;;
45011;SDS011;63444;48.148;11.542;2022-12-18T11:27:59;25.70;;;17.23;;
45011;SDS011;63444;48.148;11.542;2022-12-18T11:34:04;27.93;;;17.07;;
45011;SDS011;63444;48.148;11.542;2022-12-18T11:36:39;27.30;;;18.10;;
45011;SDS011;63444;48.148;11.542;2022-12-18T11:39:12;31.07;;;18.80;;
45011;SDS011;63444;48.148;11.542;2022-12-18T11:41:51;29.23;;;18.13;;
45011;SDS011;63444;48.148;11.542;2022-12-18T11:44:47;29.63;;;18.77;;
45011;SDS011;63444;48.148;11.542;2022-12-18T11:47:31;29.87;;;17.87;;
45011;SDS011;63444;48.148;11.542;2022-12-18T11:50:09;27.13;;;17.57;;
45011;SDS011;63444;48.148;11.542;2022-12-18T11:52:40;26.40;;;16.73;;
45011;SDS011;63444;48.148;11.542;2022-12-18T11:55:13;28.30;;;17.07;;
45011;SDS011;63444;48.148;11.542;2022-12-18T11:57:55;25.97;;;15.87;;
45011;SDS011;63444;48.148;11.542;2022-12-18T12:00:25;28.57;;;18.03;;
45011;SDS011;63444;48.148;11.542;2022-12-18T12:08:35;28.07;;;17.70;;
45011;SDS011;63444;48.148;11.542;2022-12-18T12:11:18;26.30;;;17.70;;
45011;SDS011;63444;48.148;11.542;2022-12-18T12:19:53;26.53;;;16.90;;
45011;SDS011;63444;48.148;11.542;2022-12-18T12:22:54;24.90;;;16.40;;
45011;SDS011;63444;48.148;11.542;2022-12-18T12:31:05;25.33;;;17.13;;
45011;SDS011;63444;48.148;11.542;2022-12-18T12:34:07;24.73;;;16.90;;
45011;SDS011;63444;48.148;11.542;2022-12-18T12:39:50;26.53;;;16.63;;
45011;SDS011;63444;48.148;11.542;2022-12-18T12:45:50;30.17;;;17.00;;
45011;SDS011;63444;48.148;11.542;2022-12-18T12:53:43;26.83;;;17.13;;
45011;SDS011;63444;48.148;11.542;2022-12-18T12:56:10;26.33;;;16.73;;
45011;SDS011;63444;48.148;11.542;2022-12-18T12:58:44;30.70;;;17.70;;
45011;SDS011;63444;48.148;11.542;2022-12-18T13:10:10;24.47;;;15.57;;
45011;SDS011;63444;48.148;11.542;2022-12-18T13:12:37;27.37;;;17.97;;
45011;SDS011;63444;48.148;11.542;2022-12-18T13:15:26;28.07;;;17.13;;
45011;SDS011;63444;48.148;11.542;2022-12-18T13:20:34;27.17;;;17.30;;
45011;SDS011;63444;48.148;11.542;2022-12-18T13:23:01;26.97;;;18.20;;
45011;SDS011;63444;48.148;11.542;2022-12-18T13:25:54;27.37;;;18.13;;
45011;SDS011;63444;48.148;11.542;2022-12-18T13:30:59;27.33;;;17.40;;
45011;SDS011;63444;48.148;11.542;2022-12-18T13:38:38;28.97;;;16.60;;
45011;SDS011;63444;48.148;11.542;2022-12-18T13:43:46;23.53;;;15.50;;
45011;SDS011;63444;48.148;11.542;2022-12-18T13:49:37;25.87;;;16.80;;
45011;SDS011;63444;48.148;11.542;2022-12-18T13:51:39;27.37;;;16.53;;
45011;SDS011;63444;48.148;11.542;2022-12-18T13:54:18;32.07;;;18.53;;
45011;SDS011;63444;48.148;11.542;2022-12-18T13:56:50;27.47;;;17.70;;
45011;SDS011;63444;48.148;11.542;2022-12-18T13:59:18;33.10;;;18.90;;
45011;SDS011;63444;48.148;11.542;2022-12-18T14:04:28;27.03;;;17.27;;
45011;SDS011;63444;48.148;11.542;2022-12-18T14:07:04;26.60;;;17.73;;
45011;SDS011;63444;48.148;11.542;2022-12-18T14:09:36;27.53;;;17.43;;
45011;SDS011;63444;48.148;11.542;2022-12-18T14:12:06;33.00;;;18.50;;
45011;SDS011;63444;48.148;11.542;2022-12-18T14:14:58;29.10;;;17.20;;
45011;SDS011;63444;48.148;11.542;2022-12-18T14:17:24;29.23;;;18.27;;
45011;SDS011;63444;48.148;11.542;2022-12-18T14:19:50;27.83;;;16.83;;
45011;SDS011;63444;48.148;11.542;2022-12-18T14:22:17;24.27;;;16.17;;
45011;SDS011;63444;48.148;11.542;2022-12-18T14:27:38;29.47;;;17.67;;
45011;SDS011;63444;48.148;11.542;2022-12-18T14:30:30;26.57;;;16.40;;
45011;SDS011;63444;48.148;11.542;2022-12-18T14:33:13;31.77;;;17.97;;
45011;SDS011;63444;48.148;11.542;2022-12-18T14:35:41;29.73;;;18.07;;
45011;SDS011;63444;48.148;11.542;2022-12-18T14:40:56;30.33;;;17.90;;
45011;SDS011;63444;48.148;11.542;2022-12-18T14:43:24;30.77;;;18.07;;
45011;SDS011;63444;48.148;11.542;2022-12-18T14:45:52;31.00;;;18.53;;
45011;SDS011;63444;48.148;11.542;2022-12-18T14:48:22;28.33;;;17.20;;
45011;SDS011;63444;48.148;11.542;2022-12-18T14:50:57;29.70;;;17.80;;
45011;SDS011;63444;48.148;11.542;2022-12-18T14:56:36;29.63;;;17.60;;
45011;SDS011;63444;48.148;11.542;2022-12-18T15:02:01;31.13;;;19.40;;
45011;SDS011;63444;48.148;11.542;2022-12-18T15:04:36;31.67;;;19.87;;
45011;SDS011;63444;48.148;11.542;2022-12-18T15:07:21;34.73;;;19.63;;
45011;SDS011;63444;48.148;11.542;2022-12-18T15:10:09;31.53;;;18.10;;
45011;SDS011;63444;48.148;11.542;2022-12-18T15:20:38;36.03;;;19.43;;
45011;SDS011;63444;48.148;11.542;2022-12-18T15:23:21;38.27;;;22.13;;
45011;SDS011;63444;48.148;11.542;2022-12-18T15:25:56;35.27;;;19.73;;
45011;SDS011;63444;48.148;11.542;2022-12-18T15:28:24;32.80;;;18.40;;
45011;SDS011;63444;48.148;11.542;2022-12-18T15:30:59;30.73;;;18.90;;
45011;SDS011;63444;48.148;11.542;2022-12-18T15:33:27;31.70;;;18.77;;
45011;SDS011;63444;48.148;11.542;2022-12-18T15:35:57;31.60;;;19.07;;
45011;SDS011;63444;48.148;11.542;2022-12-18T15:38:24;32.40;;;20.47;;
45011;SDS011;63444;48.148;11.542;2022-12-18T15:40:49;35.23;;;19.47;;
45011;SDS011;63444;48.148;11.542;2022-12-18T15:43:15;31.27;;;18.53;;
45011;SDS011;63444;48.148;11.542;2022-12-18T15:46:09;32.53;;;19.20;;
45011;SDS011;63444;48.148;11.542;2022-12-18T15:48:39;33.70;;;19.77;;
45011;SDS011;63444;48.148;11.542;2022-12-18T15:53:41;32.70;;;19.83;;
45011;SDS011;63444;48.148;11.542;2022-12-18T15:56:11;33.63;;;20.17;;
45011;SDS011;63444;48.148;11.542;2022-12-18T15:58:56;26.57;;;16.07;;
45011;SDS011;63444;48.148;11.542;2022-12-18T16:01:22;31.20;;;19.43;;
45011;SDS011;63444;48.148;11.542;2022-12-18T16:03:50;31.37;;;19.50;;
45011;SDS011;63444;48.148;11.542;2022-12-18T16:06:15;32.93;;;19.90;;
45011;SDS011;63444;48.148;11.542;2022-12-18T16:08:41;32.80;;;20.00;;
45011;SDS011;63444;48.148;11.542;2022-12-18T16:11:11;32.27;;;20.73;;